createdAt,value
2023-02-03T00:00:34.610Z,1.40
2023-02-03T00:03:02.569Z,1.40
2023-02-03T00:05:30.955Z,1.40
2023-02-03T00:08:00.234Z,1.40
2023-02-03T00:10:28.467Z,1.30
2023-02-03T00:13:01.025Z,1.30
2023-02-03T00:15:29.162Z,1.30
2023-02-03T00:17:57.084Z,1.30
2023-02-03T00:20:26.223Z,1.30
2023-02-03T00:22:54.415Z,1.30
2023-02-03T00:25:23.738Z,1.30
2023-02-03T00:27:51.670Z,1.40
2023-02-03T00:30:19.931Z,1.40
2023-02-03T00:32:47.864Z,1.40
2023-02-03T00:35:16.096Z,1.40
2023-02-03T00:37:44.086Z,1.40
2023-02-03T00:40:15.133Z,1.40
2023-02-03T00:42:44.502Z,1.40
2023-02-03T00:45:12.463Z,1.40
2023-02-03T00:47:40.615Z,1.40
2023-02-03T00:50:08.993Z,1.40
2023-02-03T00:52:37.260Z,1.50
2023-02-03T00:55:05.881Z,1.40
2023-02-03T00:57:34.248Z,1.30
2023-02-03T01:00:03.740Z,1.30
2023-02-03T01:02:31.762Z,1.40
2023-02-03T01:04:59.806Z,1.40
2023-02-03T01:07:27.857Z,1.40
2023-02-03T01:09:59.004Z,1.40
2023-02-03T01:12:27.219Z,1.40
2023-02-03T01:14:55.179Z,1.40
2023-02-03T01:17:24.760Z,1.50
2023-02-03T01:19:53.343Z,1.50
2023-02-03T01:22:21.356Z,1.50
2023-02-03T01:24:49.361Z,1.50
2023-02-03T01:27:21.762Z,1.40
2023-02-03T01:29:49.968Z,1.50
2023-02-03T01:32:27.530Z,1.50
2023-02-03T01:34:56.416Z,1.50
2023-02-03T01:37:24.456Z,1.50
2023-02-03T01:39:55.972Z,1.50
2023-02-03T01:42:24.003Z,1.50
2023-02-03T01:44:52.792Z,1.50
2023-02-03T01:47:28.677Z,1.60
2023-02-03T01:50:04.096Z,1.60
2023-02-03T01:52:33.853Z,1.50
2023-02-03T01:55:04.496Z,1.60
2023-02-03T01:57:35.716Z,1.50
2023-02-03T02:00:05.404Z,1.50
2023-02-03T02:02:35.183Z,1.50
2023-02-03T02:05:06.632Z,1.60
2023-02-03T02:07:55.434Z,1.50
2023-02-03T02:10:23.394Z,1.50
2023-02-03T02:12:51.818Z,1.50
2023-02-03T02:15:30.017Z,1.50
2023-02-03T02:18:30.075Z,1.50
2023-02-03T02:21:40.891Z,1.50
2023-02-03T02:24:45.321Z,1.50
2023-02-03T02:27:28.413Z,1.60
2023-02-03T02:30:26.450Z,1.60
2023-02-03T02:33:05.318Z,1.50
2023-02-03T02:35:53.065Z,1.60
2023-02-03T02:38:33.586Z,1.50
2023-02-03T02:41:07.040Z,1.50
2023-02-03T02:43:41.822Z,1.60
2023-02-03T02:46:14.712Z,1.60
2023-02-03T02:48:50.785Z,1.60
2023-02-03T02:51:21.425Z,1.60
2023-02-03T02:53:54.257Z,1.50
2023-02-03T02:56:23.180Z,1.60
2023-02-03T02:58:53.012Z,1.50
2023-02-03T03:01:21.375Z,2.20
2023-02-03T03:03:50.993Z,1.60
2023-02-03T03:06:23.334Z,1.60
2023-02-03T03:08:55.878Z,1.70
2023-02-03T03:11:25.997Z,1.60
2023-02-03T03:13:56.748Z,1.70
2023-02-03T03:16:26.809Z,1.60
2023-02-03T03:18:59.970Z,1.50
2023-02-03T03:21:33.029Z,1.60
2023-02-03T03:24:04.883Z,1.60
2023-02-03T03:26:37.055Z,1.50
2023-02-03T03:29:11.737Z,1.60
2023-02-03T03:31:41.383Z,1.60
2023-02-03T03:34:12.518Z,1.60
2023-02-03T03:36:45.926Z,1.50
2023-02-03T03:39:18.588Z,1.70
2023-02-03T03:41:57.368Z,1.60
2023-02-03T03:44:30.341Z,1.60
2023-02-03T03:47:07.424Z,1.60
2023-02-03T03:49:38.574Z,1.60
2023-02-03T03:52:10.589Z,1.50
2023-02-03T03:54:40.418Z,1.70
2023-02-03T03:57:15.753Z,1.60
2023-02-03T03:59:59.296Z,1.60
2023-02-03T04:02:29.335Z,1.60
2023-02-03T04:05:01.321Z,1.60
2023-02-03T04:07:39.904Z,1.50
2023-02-03T04:10:23.343Z,1.60
2023-02-03T04:12:51.470Z,1.50
2023-02-03T04:15:19.541Z,1.60
2023-02-03T04:17:47.589Z,1.60
2023-02-03T04:20:20.220Z,1.50
2023-02-03T04:23:06.197Z,1.50
2023-02-03T04:25:37.239Z,1.60
2023-02-03T04:28:08.837Z,1.60
2023-02-03T04:30:37.159Z,1.50
2023-02-03T04:33:05.481Z,1.40
2023-02-03T04:35:34.972Z,1.40
2023-02-03T04:38:09.470Z,1.40
2023-02-03T04:40:37.729Z,1.30
2023-02-03T04:43:08.852Z,1.50
2023-02-03T04:45:37.106Z,1.40
2023-02-03T04:48:11.444Z,1.40
2023-02-03T04:50:41.406Z,1.50
2023-02-03T04:53:09.525Z,1.40
2023-02-03T04:55:37.709Z,1.40
2023-02-03T04:58:10.751Z,1.40
2023-02-03T05:00:39.775Z,1.40
2023-02-03T05:03:07.942Z,1.40
2023-02-03T05:05:35.994Z,1.40
2023-02-03T05:08:05.897Z,1.40
2023-02-03T05:10:34.023Z,1.40
2023-02-03T05:13:02.200Z,2.10
2023-02-03T05:15:30.372Z,1.50
2023-02-03T05:17:58.475Z,1.50
2023-02-03T05:20:26.738Z,1.50
2023-02-03T05:22:55.012Z,1.50
2023-02-03T05:25:24.532Z,1.50
2023-02-03T05:27:52.626Z,1.50
2023-02-03T05:30:20.798Z,1.50
2023-02-03T05:32:49.998Z,1.50
2023-02-03T05:35:22.942Z,1.50
2023-02-03T05:37:51.012Z,1.50
2023-02-03T05:40:38.890Z,1.50
2023-02-03T05:43:08.939Z,1.50
2023-02-03T05:45:37.133Z,1.50
2023-02-03T05:48:07.217Z,1.50
2023-02-03T05:50:38.477Z,1.50
2023-02-03T05:53:11.795Z,1.50
2023-02-03T05:55:39.833Z,1.60
2023-02-03T05:58:09.361Z,1.60
2023-02-03T06:00:39.489Z,1.60
2023-02-03T06:03:08.216Z,1.60
2023-02-03T06:05:43.320Z,1.60
2023-02-03T06:08:12.023Z,1.60
2023-02-03T06:10:40.377Z,1.60
2023-02-03T06:13:14.555Z,1.60
2023-02-03T06:15:43.759Z,1.60
2023-02-03T06:18:11.845Z,1.70
2023-02-03T06:20:45.795Z,1.70
2023-02-03T06:23:14.163Z,1.60
2023-02-03T06:25:50.165Z,1.60
2023-02-03T06:28:19.788Z,1.60
2023-02-03T06:30:51.187Z,1.60
2023-02-03T06:33:19.500Z,1.70
2023-02-03T06:35:47.406Z,1.60
2023-02-03T06:38:15.304Z,1.60
2023-02-03T06:40:43.289Z,1.70
2023-02-03T06:43:14.072Z,1.70
2023-02-03T06:45:46.279Z,1.70
2023-02-03T06:48:14.680Z,1.60
2023-02-03T06:50:43.141Z,1.70
2023-02-03T06:53:11.426Z,1.70
2023-02-03T06:55:39.604Z,1.60
2023-02-03T06:58:07.695Z,1.60
2023-02-03T07:03:49.212Z,1.70
2023-02-03T07:06:20.064Z,1.70
2023-02-03T07:09:01.780Z,1.80
2023-02-03T07:11:41.943Z,1.70
2023-02-03T07:14:25.823Z,1.70
2023-02-03T07:16:57.526Z,1.70
2023-02-03T07:19:27.326Z,1.80
2023-02-03T07:21:58.670Z,1.80
2023-02-03T07:24:33.174Z,1.80
2023-02-03T07:27:19.235Z,1.80
2023-02-03T07:29:56.654Z,1.80
2023-02-03T07:32:27.830Z,1.70
2023-02-03T07:35:03.847Z,1.80
2023-02-03T07:37:32.230Z,1.80
2023-02-03T07:40:00.637Z,1.80
2023-02-03T07:42:57.450Z,1.80
2023-02-03T07:45:28.726Z,1.70
2023-02-03T07:47:56.917Z,1.80
2023-02-03T07:50:26.792Z,1.80
2023-02-03T07:52:55.691Z,1.80
2023-02-03T07:55:32.316Z,1.80
2023-02-03T07:58:09.559Z,1.80
2023-02-03T08:00:42.561Z,1.80
2023-02-03T08:03:10.933Z,1.80
2023-02-03T08:05:43.574Z,2.40
2023-02-03T08:08:11.949Z,1.80
2023-02-03T08:10:40.509Z,1.80
2023-02-03T08:13:11.960Z,1.80
2023-02-03T08:15:40.283Z,1.80
2023-02-03T08:18:12.998Z,1.80
2023-02-03T08:20:42.757Z,1.90
2023-02-03T08:23:45.685Z,1.80
2023-02-03T08:26:32.272Z,1.80
2023-02-03T08:29:03.876Z,1.80
2023-02-03T08:31:33.154Z,1.90
2023-02-03T08:34:14.249Z,1.90
2023-02-03T08:36:51.385Z,1.90
2023-02-03T08:39:23.369Z,1.90
2023-02-03T08:42:22.446Z,1.90
2023-02-03T08:45:05.189Z,1.90
2023-02-03T08:47:53.024Z,1.90
2023-02-03T08:50:31.828Z,1.90
2023-02-03T08:53:29.596Z,1.90
2023-02-03T08:59:56.846Z,2.00
2023-02-03T09:07:44.711Z,2.00
2023-02-03T09:10:17.349Z,2.00
2023-02-03T09:12:52.388Z,2.00
2023-02-03T09:15:49.393Z,2.00
2023-02-03T09:18:31.612Z,2.00
2023-02-03T09:21:07.100Z,2.00
2023-02-03T09:23:53.960Z,2.00
2023-02-03T09:26:28.056Z,2.00
2023-02-03T09:29:03.741Z,2.00
2023-02-03T09:35:00.968Z,2.00
2023-02-03T09:37:31.497Z,2.10
2023-02-03T09:40:23.939Z,2.10
2023-02-03T09:43:03.503Z,2.10
2023-02-03T09:45:33.065Z,2.10
2023-02-03T09:48:42.028Z,2.10
2023-02-03T09:51:32.313Z,2.10
2023-02-03T09:55:14.433Z,2.00
2023-02-03T09:58:25.216Z,2.10
2023-02-03T10:01:24.085Z,2.10
2023-02-03T10:04:30.167Z,2.10
2023-02-03T10:07:19.877Z,2.00
2023-02-03T10:10:26.412Z,2.10
2023-02-03T10:13:16.307Z,2.10
2023-02-03T10:16:10.999Z,2.10
2023-02-03T10:18:46.452Z,2.10
2023-02-03T10:21:20.207Z,2.20
2023-02-03T10:23:51.325Z,2.20
2023-02-03T10:26:24.743Z,2.10
2023-02-03T10:28:57.093Z,2.20
2023-02-03T10:31:29.635Z,2.10
2023-02-03T10:34:03.453Z,2.10
2023-02-03T10:36:43.679Z,2.10
2023-02-03T10:39:25.298Z,2.10
2023-02-03T10:41:54.730Z,2.20
2023-02-03T10:44:34.302Z,2.10
2023-02-03T10:47:04.290Z,2.20
2023-02-03T10:49:33.220Z,2.50
2023-02-03T10:52:13.585Z,2.10
2023-02-03T10:54:42.392Z,2.20
2023-02-03T10:57:15.259Z,2.20
2023-02-03T10:59:47.055Z,2.10
2023-02-03T11:02:26.199Z,2.10
2023-02-03T11:05:13.684Z,2.20
2023-02-03T11:07:42.132Z,2.10
2023-02-03T11:10:34.678Z,2.20
2023-02-03T11:13:15.542Z,2.20
2023-02-03T11:15:56.140Z,2.10
2023-02-03T11:18:57.630Z,2.10
2023-02-03T11:21:32.080Z,2.10
2023-02-03T11:24:17.240Z,2.20
2023-02-03T11:26:49.990Z,2.30
2023-02-03T11:29:23.782Z,2.20
2023-02-03T11:31:57.507Z,2.20
2023-02-03T11:34:29.486Z,2.20
2023-02-03T11:37:00.778Z,2.20
2023-02-03T11:39:35.616Z,2.20
2023-02-03T11:42:04.488Z,2.20
2023-02-03T11:44:39.197Z,2.20
2023-02-03T11:47:17.460Z,2.20
2023-02-03T11:50:12.752Z,2.20
2023-02-03T11:52:51.613Z,2.20
2023-02-03T11:55:45.295Z,2.20
2023-02-03T11:58:35.774Z,2.20
2023-02-03T12:01:16.292Z,2.30
2023-02-03T12:04:19.316Z,2.30
2023-02-03T12:07:15.427Z,2.30
2023-02-03T12:09:53.770Z,2.30
2023-02-03T12:12:41.576Z,2.40
2023-02-03T12:15:31.031Z,2.30
2023-02-03T12:18:20.144Z,2.20
2023-02-03T12:21:08.170Z,2.20
2023-02-03T12:23:48.748Z,2.30
2023-02-03T12:26:23.771Z,2.30
2023-02-03T12:29:03.266Z,2.30
2023-02-03T12:31:39.120Z,2.30
2023-02-03T12:34:19.848Z,2.20
2023-02-03T12:36:54.899Z,2.40
2023-02-03T12:39:28.147Z,2.20
2023-02-03T12:42:01.953Z,2.30
2023-02-03T12:44:46.336Z,2.30
2023-02-03T12:47:27.451Z,2.30
2023-02-03T12:50:00.660Z,2.30
2023-02-03T12:52:42.741Z,2.30
2023-02-03T12:55:22.187Z,2.30
2023-02-03T12:57:55.321Z,2.20
2023-02-03T13:00:37.974Z,2.30
2023-02-03T13:03:27.992Z,2.30
2023-02-03T13:06:05.524Z,2.30
2023-02-03T13:08:37.975Z,2.30
2023-02-03T13:11:21.621Z,2.30
2023-02-03T13:13:55.041Z,2.30
2023-02-03T13:16:29.255Z,2.40
2023-02-03T13:19:02.958Z,2.30
2023-02-03T13:21:30.906Z,2.40
2023-02-03T13:24:00.349Z,2.40
2023-02-03T13:26:57.805Z,2.40
2023-02-03T13:29:43.931Z,2.40
2023-02-03T13:32:24.404Z,2.40
2023-02-03T13:35:12.936Z,2.40
2023-02-03T13:37:58.819Z,2.50
2023-02-03T13:40:41.582Z,2.40
2023-02-03T13:43:32.052Z,2.50
2023-02-03T13:46:08.719Z,2.40
2023-02-03T13:48:37.712Z,2.50
2023-02-03T13:51:09.576Z,2.40
2023-02-03T13:53:40.036Z,2.50
2023-02-03T13:56:17.620Z,2.40
2023-02-03T13:59:01.000Z,2.50
2023-02-03T14:01:36.394Z,2.40
2023-02-03T14:04:06.179Z,2.50
2023-02-03T14:07:02.373Z,2.50
2023-02-03T14:09:48.160Z,2.40
2023-02-03T14:12:34.330Z,2.40
2023-02-03T14:15:17.638Z,2.50
2023-02-03T14:18:22.960Z,2.50
2023-02-03T14:21:21.844Z,2.50
2023-02-03T14:24:00.410Z,2.30
2023-02-03T14:26:39.252Z,2.40
2023-02-03T14:29:10.515Z,2.40
2023-02-03T14:31:57.437Z,2.30
2023-02-03T14:34:37.963Z,2.40
2023-02-03T14:37:22.665Z,2.40
2023-02-03T14:40:26.292Z,2.40
2023-02-03T14:43:29.421Z,2.40
2023-02-03T14:46:13.030Z,2.40
2023-02-03T14:49:25.924Z,2.50
2023-02-03T14:52:08.540Z,2.50
2023-02-03T14:54:53.693Z,2.40
2023-02-03T14:57:38.764Z,2.60
2023-02-03T15:00:37.608Z,2.30
2023-02-03T15:03:27.965Z,2.40
2023-02-03T15:06:09.259Z,2.40
2023-02-03T15:08:42.336Z,2.50
2023-02-03T15:11:28.247Z,2.40
2023-02-03T15:14:02.344Z,2.40
2023-02-03T15:16:37.123Z,2.40
2023-02-03T15:19:19.136Z,2.40
2023-02-03T15:21:47.511Z,2.40
2023-02-03T15:24:18.468Z,2.40
2023-02-03T15:26:47.888Z,2.50
2023-02-03T15:29:23.061Z,2.50
2023-02-03T15:31:54.645Z,2.50
2023-02-03T15:34:29.089Z,3.10
2023-02-03T15:37:00.005Z,2.50
2023-02-03T15:39:46.030Z,2.50
2023-02-03T15:42:22.459Z,2.50
2023-02-03T15:44:55.485Z,2.50
2023-02-03T15:47:31.266Z,2.50
2023-02-03T15:50:25.700Z,2.60
2023-02-03T15:52:57.602Z,2.60
2023-02-03T15:55:33.491Z,2.60
2023-02-03T15:58:01.708Z,2.50
2023-02-03T16:00:37.181Z,2.60
2023-02-03T16:03:13.968Z,2.70
2023-02-03T16:05:48.626Z,3.20
2023-02-03T16:08:37.244Z,2.60
2023-02-03T16:11:27.910Z,2.60
2023-02-03T16:13:57.370Z,2.70
2023-02-03T16:16:27.816Z,2.60
2023-02-03T16:19:16.358Z,2.60
2023-02-03T16:21:56.282Z,2.60
2023-02-03T16:24:41.019Z,2.60
2023-02-03T16:27:22.469Z,2.50
2023-02-03T16:30:07.874Z,2.60
2023-02-03T16:32:53.796Z,2.60
2023-02-03T16:35:39.161Z,2.60
2023-02-03T16:38:32.843Z,2.60
2023-02-03T16:41:19.606Z,2.50
2023-02-03T16:44:05.210Z,2.50
2023-02-03T16:46:52.291Z,2.50
2023-02-03T16:49:48.784Z,2.60
2023-02-03T16:52:19.352Z,2.60
2023-02-03T16:56:04.618Z,2.50
2023-02-03T16:58:34.224Z,2.50
2023-02-03T17:01:25.365Z,2.50
2023-02-03T17:03:58.414Z,2.50
2023-02-03T17:06:26.439Z,2.50
2023-02-03T17:08:54.328Z,2.50
2023-02-03T17:11:23.977Z,2.50
2023-02-03T17:13:53.177Z,2.50
2023-02-03T17:16:23.747Z,2.60
2023-02-03T17:18:52.304Z,2.60
2023-02-03T17:21:22.470Z,2.50
2023-02-03T17:23:50.605Z,2.50
2023-02-03T17:26:18.903Z,2.50
2023-02-03T17:28:46.764Z,2.60
2023-02-03T17:31:17.803Z,2.50
2023-02-03T17:33:46.756Z,2.70
2023-02-03T17:36:16.824Z,2.70
2023-02-03T17:55:28.244Z,2.70
2023-02-03T17:57:58.829Z,2.60
2023-02-03T18:00:29.118Z,2.70
2023-02-03T18:02:58.610Z,2.70
2023-02-03T18:05:26.686Z,2.80
2023-02-03T18:07:54.757Z,2.80
2023-02-03T18:10:23.133Z,2.80
2023-02-03T18:12:51.020Z,2.80
2023-02-03T18:18:25.976Z,2.60
2023-02-03T18:20:56.280Z,2.80
2023-02-03T18:23:24.256Z,2.80
2023-02-03T18:25:55.652Z,3.30
2023-02-03T18:28:24.061Z,2.80
2023-02-03T18:30:52.373Z,2.80
2023-02-03T18:33:20.401Z,2.80
2023-02-03T18:35:49.640Z,2.70
2023-02-03T18:38:17.635Z,2.80
2023-02-03T18:40:45.524Z,2.80
2023-02-03T18:43:13.767Z,2.80
2023-02-03T18:45:42.000Z,2.80
2023-02-03T18:48:09.939Z,2.80
2023-02-03T18:50:53.520Z,2.80
2023-02-03T18:53:24.257Z,2.90
2023-02-03T18:55:52.134Z,2.90
2023-02-03T18:58:20.014Z,2.90
2023-02-03T19:00:47.961Z,2.90
2023-02-03T19:03:15.825Z,2.90
2023-02-03T19:05:44.221Z,2.90
2023-02-03T19:08:14.413Z,2.90
2023-02-03T19:10:42.278Z,2.90
2023-02-03T19:13:10.223Z,2.90
2023-02-03T19:15:38.287Z,2.90
2023-02-03T19:18:06.507Z,2.90
2023-02-03T19:20:34.590Z,2.90
2023-02-03T19:23:04.413Z,3.50
2023-02-03T19:25:36.959Z,2.90
2023-02-03T19:28:20.077Z,3.00
2023-02-03T19:30:50.416Z,3.00
2023-02-03T19:33:21.149Z,3.00
2023-02-03T19:35:52.098Z,3.00
2023-02-03T19:38:19.979Z,3.10
2023-02-03T19:40:49.197Z,3.10
2023-02-03T19:43:17.156Z,3.00
2023-02-03T19:45:45.008Z,3.10
2023-02-03T19:48:12.958Z,3.10
2023-02-03T19:50:45.648Z,3.60
2023-02-03T19:53:14.163Z,3.10
2023-02-03T19:55:43.525Z,3.10
2023-02-03T19:58:13.665Z,3.10
2023-02-03T20:00:42.013Z,3.10
2023-02-03T20:03:10.299Z,3.10
2023-02-03T20:05:38.568Z,3.10
2023-02-03T20:08:06.986Z,3.10
2023-02-03T20:10:34.923Z,3.10
2023-02-03T20:13:02.879Z,3.10
2023-02-03T20:15:32.154Z,3.10
2023-02-03T20:18:00.113Z,3.10
2023-02-03T20:20:29.127Z,3.20
2023-02-03T20:22:57.212Z,3.10
2023-02-03T20:25:25.206Z,3.10
2023-02-03T20:27:53.600Z,3.10
2023-02-03T20:30:22.070Z,3.10
2023-02-03T20:32:51.464Z,3.10
2023-02-03T20:35:19.779Z,3.10
2023-02-03T20:37:47.693Z,3.20
2023-02-03T20:40:17.896Z,3.20
2023-02-03T20:42:47.289Z,3.10
2023-02-03T20:45:25.314Z,3.80
2023-02-03T20:47:54.577Z,3.20
2023-02-03T20:50:31.625Z,3.10
2023-02-03T20:53:12.550Z,3.10
2023-02-03T20:55:40.950Z,3.20
2023-02-03T20:58:16.857Z,3.20
2023-02-03T21:00:45.160Z,3.10
2023-02-03T21:03:33.924Z,3.20
2023-02-03T21:06:02.170Z,3.20
2023-02-03T21:08:30.611Z,3.20
2023-02-03T21:10:58.539Z,3.20
2023-02-03T21:13:28.553Z,3.20
2023-02-03T21:15:59.433Z,3.20
2023-02-03T21:18:35.524Z,3.20
2023-02-03T21:21:04.252Z,3.20
2023-02-03T21:23:40.591Z,3.20
2023-02-03T21:26:22.980Z,3.20
2023-02-03T21:28:52.552Z,3.20
2023-02-03T21:31:24.690Z,3.10
2023-02-03T21:33:55.084Z,3.20
2023-02-03T21:36:24.899Z,3.20
2023-02-03T21:38:54.862Z,3.20
2023-02-03T21:41:25.093Z,3.20
2023-02-03T21:43:54.684Z,3.20
2023-02-03T21:46:26.715Z,3.30
2023-02-03T21:49:00.224Z,3.20
2023-02-03T21:51:30.685Z,3.30
2023-02-03T21:54:00.516Z,3.30
2023-02-03T21:56:31.276Z,3.30
2023-02-03T21:59:00.158Z,3.40
2023-02-03T22:01:33.349Z,3.40
2023-02-03T22:04:03.989Z,3.50
2023-02-03T22:06:42.883Z,3.50
2023-02-03T22:09:13.606Z,3.50
2023-02-03T22:11:41.811Z,3.50
2023-02-03T22:14:09.858Z,3.50
2023-02-03T22:16:38.561Z,3.50
2023-02-03T22:19:08.065Z,3.50
2023-02-03T22:21:36.484Z,3.50
2023-02-03T22:24:04.872Z,3.60
2023-02-03T22:26:32.829Z,3.60
2023-02-03T22:29:00.763Z,3.60
2023-02-03T22:31:28.925Z,3.60
2023-02-03T22:33:56.891Z,3.60
2023-02-03T22:36:26.265Z,3.70
2023-02-03T22:38:54.190Z,3.80
2023-02-03T22:41:22.171Z,3.80
2023-02-03T22:43:50.084Z,3.60
2023-02-03T22:46:18.046Z,3.70
2023-02-03T22:48:46.048Z,3.70
2023-02-03T22:51:13.930Z,3.70
2023-02-03T22:53:43.209Z,3.70
2023-02-03T22:56:11.139Z,3.70
2023-02-03T22:58:39.028Z,3.70
2023-02-03T23:01:07.169Z,3.80
2023-02-03T23:03:35.117Z,3.70
2023-02-03T23:06:03.049Z,3.70
2023-02-03T23:08:30.972Z,3.70
2023-02-03T23:11:00.215Z,3.70
2023-02-03T23:13:28.737Z,3.70
2023-02-03T23:15:56.663Z,3.70
2023-02-03T23:18:24.598Z,3.70
2023-02-03T23:20:52.505Z,3.70
2023-02-03T23:23:20.423Z,3.80
2023-02-03T23:25:48.339Z,3.80
2023-02-03T23:28:17.693Z,3.80
2023-02-03T23:30:45.729Z,3.80
2023-02-03T23:33:13.738Z,3.80
2023-02-03T23:35:46.542Z,3.90
2023-02-03T23:38:15.573Z,3.90
2023-02-03T23:40:43.907Z,3.90
2023-02-03T23:43:11.920Z,3.80
2023-02-03T23:45:41.556Z,3.80
2023-02-03T23:48:09.500Z,3.60
2023-02-03T23:50:37.446Z,3.70
2023-02-03T23:53:05.412Z,3.70
2023-02-03T23:55:33.342Z,3.70
2023-02-03T23:58:01.255Z,3.70
